Time;durP1;ratioP1;P1;durP2;ratioP2;P2;SDS_P1;SDS_P2;PMS_P1;PMS_P2;Temp;Humidity;BMP_temperature;BMP_pressure;BME280_temperature;BME280_humidity;BME280_pressure;Samples;Min_cycle;Max_cycle;Signal;HPM_P1;HPM_P2
2022/02/11 00:07:08;;;;;;;4.72;2.08;;;23.20;50.70;;;;;;20967246;28;20049;-51
2022/02/11 00:17:12;;;;;;;4.03;2.20;;;23.80;50.00;;;;;;20959484;28;20403;-52
2022/02/11 00:37:52;;;;;;;5.65;2.58;;;24.30;49.30;;;;;;20905641;28;20147;-52
2022/02/11 01:08:34;;;;;;;4.10;2.45;;;23.30;50.20;;;;;;20974210;28;20106;-52
2022/02/11 01:18:35;;;;;;;3.22;2.20;;;23.10;50.30;;;;;;20921804;28;20051;-52
2022/02/11 01:28:59;;;;;;;7.97;2.45;;;22.70;50.60;;;;;;20896273;28;20380;-52
2022/02/11 04:55:55;;;;;;;3.97;2.17;;;20.40;53.70;;;;;;20954177;28;20041;-52
2022/02/11 05:05:58;;;;;;;4.82;2.60;;;20.20;54.10;;;;;;20912450;28;20055;-52
2022/02/11 05:16:00;;;;;;;4.88;1.95;;;20.70;53.70;;;;;;20911544;28;20041;-52
2022/02/11 05:26:03;;;;;;;5.93;2.28;;;21.80;52.60;;;;;;20910015;28;20060;-53
2022/02/11 05:36:06;;;;;;;3.42;2.22;;;22.70;51.70;;;;;;20923452;28;20500;-53
2022/02/11 05:46:09;;;;;;;3.70;1.63;;;23.30;50.90;;;;;;20909351;28;20048;-54
2022/02/11 05:56:12;;;;;;;4.88;1.90;;;23.60;50.20;;;;;;20964138;28;20056;-53
2022/02/11 06:06:17;;;;;;;8.65;2.45;;;23.50;50.20;;;;;;20944170;28;20048;-54
2022/02/11 06:16:23;;;;;;;4.07;2.40;;;23.30;50.20;;;;;;20969461;28;20059;-53
2022/02/11 06:26:27;;;;;;;4.53;2.33;;;23.20;49.90;;;;;;20932513;28;20460;-53
2022/02/11 06:36:30;;;;;;;8.73;3.03;;;22.70;50.10;;;;;;20925657;28;20052;-53
2022/02/11 06:46:32;;;;;;;15.02;3.55;;;22.20;51.00;;;;;;20920328;28;20059;-53
2022/02/11 06:56:35;;;;;;;13.10;3.65;;;21.70;51.80;;;;;;20962769;28;20131;-53
2022/02/11 07:06:37;;;;;;;10.52;4.18;;;21.30;52.60;;;;;;20954853;28;20551;-52
2022/02/11 07:16:40;;;;;;;7.68;3.63;;;20.80;53.20;;;;;;20949957;28;20056;-54
2022/02/11 07:26:41;;;;;;;9.45;3.83;;;20.50;53.90;;;;;;20908179;28;20144;-52
2022/02/11 07:36:44;;;;;;;9.20;3.88;;;20.20;54.40;;;;;;20918299;28;20047;-52
2022/02/11 07:46:51;;;;;;;11.40;3.45;;;20.00;54.80;;;;;;20914988;28;20410;-52
2022/02/11 07:56:55;;;;;;;8.93;3.17;;;19.80;55.30;;;;;;20973077;28;20049;-51
2022/02/11 08:06:58;;;;;;;7.80;3.38;;;19.70;55.60;;;;;;20959342;28;20052;-51
2022/02/11 08:17:01;;;;;;;7.07;2.97;;;19.60;55.90;;;;;;20950995;28;20708;-52
2022/02/11 08:27:04;;;;;;;8.15;3.47;;;19.50;56.40;;;;;;20996006;28;20182;-51
2022/02/11 08:37:07;;;;;;;6.70;2.92;;;19.40;56.60;;;;;;20992768;28;20045;-52
2022/02/11 08:47:09;;;;;;;8.10;3.50;;;19.30;56.70;;;;;;20914394;28;20088;-53
2022/02/11 08:57:11;;;;;;;12.48;3.20;;;19.20;56.80;;;;;;20966601;28;20057;-52
2022/02/11 09:07:13;;;;;;;8.57;3.38;;;19.20;56.90;;;;;;20950232;28;20052;-52
2022/02/11 09:17:15;;;;;;;7.75;3.38;;;19.20;57.00;;;;;;20980892;28;20052;-52
2022/02/11 09:27:19;;;;;;;6.00;3.28;;;19.20;57.20;;;;;;20911467;28;20048;-51
2022/02/11 09:37:20;;;;;;;5.90;3.20;;;19.10;57.50;;;;;;20966383;28;20398;-52
2022/02/11 09:47:24;;;;;;;6.80;3.38;;;19.10;57.70;;;;;;20910017;28;20080;-52
2022/02/11 09:57:26;;;;;;;7.47;2.92;;;19.10;57.90;;;;;;20950978;28;20056;-52
2022/02/11 10:07:28;;;;;;;9.57;3.25;;;19.10;58.00;;;;;;20908855;28;20049;-52
2022/02/11 10:17:33;;;;;;;9.05;3.95;;;19.10;58.10;;;;;;20907871;28;20076;-51
2022/02/11 10:27:36;;;;;;;6.13;3.33;;;19.10;58.20;;;;;;20907090;28;20049;-52
2022/02/11 10:38:03;;;;;;;8.50;3.45;;;19.10;58.30;;;;;;20979434;28;20483;-52
2022/02/11 10:48:20;;;;;;;5.75;3.17;;;19.20;58.40;;;;;;20987992;28;20044;-51
2022/02/11 10:58:25;;;;;;;5.05;3.30;;;19.30;58.30;;;;;;20987648;28;20131;-51
2022/02/11 11:08:29;;;;;;;6.30;2.72;;;19.40;58.20;;;;;;20974427;28;20450;-50
2022/02/11 11:18:37;;;;;;;5.97;3.47;;;19.40;58.20;;;;;;20886266;28;20399;-51
2022/02/11 11:28:49;;;;;;;5.25;2.85;;;19.40;58.20;;;;;;20906041;28;20044;-51
2022/02/11 11:38:58;;;;;;;9.40;3.20;;;19.50;58.20;;;;;;20986161;28;20374;-51
2022/02/11 11:49:11;;;;;;;5.60;2.80;;;19.60;58.20;;;;;;20934322;28;20050;-51
2022/02/11 11:59:18;;;;;;;5.22;2.80;;;19.60;58.20;;;;;;20899609;28;20099;-51
2022/02/11 12:09:20;;;;;;;3.97;2.67;;;19.60;58.10;;;;;;20824028;28;20057;-52
2022/02/11 12:19:23;;;;;;;6.32;2.70;;;19.70;58.00;;;;;;20801710;28;20090;-52
2022/02/11 12:29:25;;;;;;;6.32;2.80;;;19.70;58.00;;;;;;20837251;28;20044;-52
2022/02/11 12:39:28;;;;;;;6.50;3.05;;;19.70;58.00;;;;;;20947591;28;20128;-52
2022/02/11 12:49:30;;;;;;;5.53;2.58;;;19.80;57.90;;;;;;20934606;28;20080;-52
2022/02/11 12:59:32;;;;;;;3.65;2.20;;;19.80;57.70;;;;;;20968744;28;20045;-52
2022/02/11 13:09:34;;;;;;;8.45;2.85;;;19.90;57.70;;;;;;20913715;28;20053;-52
2022/02/11 13:19:36;;;;;;;5.50;2.63;;;19.90;57.60;;;;;;20924608;28;20055;-52
2022/02/11 13:29:38;;;;;;;5.30;2.50;;;20.00;57.50;;;;;;20994805;28;20056;-51
2022/02/11 13:39:41;;;;;;;4.43;2.42;;;20.00;57.40;;;;;;20973668;28;20411;-51
2022/02/11 13:49:43;;;;;;;4.95;2.72;;;20.00;57.40;;;;;;20911845;28;20102;-51
2022/02/11 13:59:45;;;;;;;6.13;2.45;;;20.00;57.30;;;;;;20964620;28;20095;-51
2022/02/11 14:09:46;;;;;;;6.15;2.50;;;20.00;57.20;;;;;;20908052;28;20089;-52
2022/02/11 14:19:48;;;;;;;5.28;2.08;;;20.00;57.20;;;;;;20926126;28;20063;-52
2022/02/11 14:29:50;;;;;;;5.00;2.30;;;20.00;57.10;;;;;;20989537;28;20048;-51
2022/02/11 14:39:52;;;;;;;4.55;1.83;;;20.00;57.10;;;;;;20986622;28;20056;-53
2022/02/11 14:49:54;;;;;;;4.07;1.92;;;20.00;57.10;;;;;;20988666;28;20151;-52
2022/02/11 14:59:56;;;;;;;3.35;1.77;;;20.00;56.90;;;;;;20988555;28;20056;-51
2022/02/11 15:09:57;;;;;;;3.85;1.80;;;20.00;56.90;;;;;;20987499;28;20048;-51
2022/02/11 15:20:00;;;;;;;4.68;2.17;;;20.00;56.80;;;;;;20943638;28;20060;-51
2022/02/11 15:30:03;;;;;;;3.70;2.10;;;20.10;56.70;;;;;;20907474;28;20079;-52
2022/02/11 15:40:06;;;;;;;3.88;1.80;;;20.00;56.50;;;;;;20904001;28;20080;-51
2022/02/11 15:50:09;;;;;;;3.33;1.83;;;20.10;56.50;;;;;;20891036;28;20044;-57
2022/02/11 16:00:12;;;;;;;7.10;2.30;;;20.10;56.50;;;;;;20974400;28;20464;-53
2022/02/11 16:10:14;;;;;;;7.45;2.22;;;20.10;56.10;;;;;;20956167;28;20061;-51
2022/02/11 16:20:16;;;;;;;7.75;2.25;;;20.20;54.90;;;;;;20917245;28;20622;-51
2022/02/11 16:30:18;;;;;;;5.75;2.15;;;20.30;54.60;;;;;;20926670;28;20045;-53
2022/02/11 16:40:20;;;;;;;7.07;2.30;;;20.20;54.70;;;;;;20935865;28;20483;-52
2022/02/11 16:50:22;;;;;;;7.97;2.17;;;20.20;54.90;;;;;;20994719;28;20384;-51
2022/02/11 17:00:24;;;;;;;3.72;1.85;;;20.10;55.10;;;;;;20996733;28;20045;-51
2022/02/11 17:10:26;;;;;;;7.50;1.80;;;20.00;55.40;;;;;;20979129;28;20567;-51
2022/02/11 17:20:28;;;;;;;4.10;2.28;;;19.90;55.70;;;;;;20912434;28;20143;-52
2022/02/11 17:30:33;;;;;;;6.13;1.90;;;19.80;55.90;;;;;;20929524;28;20539;-52
2022/02/11 17:40:34;;;;;;;5.32;1.80;;;19.70;56.20;;;;;;20993914;28;20052;-52
2022/02/11 17:50:36;;;;;;;4.57;1.92;;;19.70;56.40;;;;;;20932050;28;20052;-52
2022/02/11 18:00:38;;;;;;;4.30;1.77;;;19.60;56.60;;;;;;20990793;28;20053;-51
2022/02/11 18:10:40;;;;;;;4.75;1.90;;;19.50;56.80;;;;;;20968551;28;20078;-51
2022/02/11 18:20:42;;;;;;;5.25;1.90;;;19.40;57.00;;;;;;20946751;28;20543;-52
2022/02/11 18:30:44;;;;;;;10.43;2.08;;;19.40;57.10;;;;;;20945788;28;20106;-52
2022/02/11 18:40:46;;;;;;;9.02;2.25;;;19.40;57.10;;;;;;20977508;28;20641;-52
2022/02/11 18:50:52;;;;;;;6.80;1.92;;;19.40;57.10;;;;;;20956839;28;20056;-52
2022/02/11 19:00:54;;;;;;;7.53;2.08;;;19.40;57.30;;;;;;20960369;28;20053;-53
2022/02/11 19:10:58;;;;;;;7.40;2.15;;;19.50;58.00;;;;;;20951582;28;20046;-54
